sensor_id;sensor_type;location;lat;lon;timestamp;temperature;humidity
19252;DHT22;9760;50.944;5.304;2023-10-09T00:00:34;16.20;99.90
19252;DHT22;9760;50.944;5.304;2023-10-09T00:03:06;16.10;99.90
19252;DHT22;9760;50.944;5.304;2023-10-09T00:05:33;16.10;99.90
19252;DHT22;9760;50.944;5.304;2023-10-09T00:08:14;16.20;99.90
19252;DHT22;9760;50.944;5.304;2023-10-09T00:10:51;16.20;99.90
19252;DHT22;9760;50.944;5.304;2023-10-09T00:13:21;16.10;99.90
19252;DHT22;9760;50.944;5.304;2023-10-09T00:15:54;16.10;99.90
19252;DHT22;9760;50.944;5.304;2023-10-09T00:18:24;16.10;99.90
19252;DHT22;9760;50.944;5.304;2023-10-09T00:20:54;16.20;99.90
19252;DHT22;9760;50.944;5.304;2023-10-09T00:23:21;16.20;99.90
19252;DHT22;9760;50.944;5.304;2023-10-09T00:25:51;16.20;99.90
19252;DHT22;9760;50.944;5.304;2023-10-09T00:28:38;16.10;99.90
19252;DHT22;9760;50.944;5.304;2023-10-09T00:31:08;16.00;99.90
19252;DHT22;9760;50.944;5.304;2023-10-09T00:33:40;16.00;99.90
19252;DHT22;9760;50.944;5.304;2023-10-09T00:36:06;16.00;99.90
19252;DHT22;9760;50.944;5.304;2023-10-09T00:38:38;15.90;99.90
19252;DHT22;9760;50.944;5.304;2023-10-09T00:41:10;16.00;99.90
19252;DHT22;9760;50.944;5.304;2023-10-09T00:43:38;15.90;99.90
19252;DHT22;9760;50.944;5.304;2023-10-09T00:46:08;15.90;99.90
19252;DHT22;9760;50.944;5.304;2023-10-09T00:48:42;15.90;99.90
19252;DHT22;9760;50.944;5.304;2023-10-09T00:51:08;15.90;99.90
19252;DHT22;9760;50.944;5.304;2023-10-09T00:53:45;15.90;99.90
19252;DHT22;9760;50.944;5.304;2023-10-09T00:56:16;16.00;99.90
19252;DHT22;9760;50.944;5.304;2023-10-09T00:58:49;15.90;99.90
19252;DHT22;9760;50.944;5.304;2023-10-09T01:01:27;15.90;99.90
19252;DHT22;9760;50.944;5.304;2023-10-09T01:04:11;16.00;99.90
19252;DHT22;9760;50.944;5.304;2023-10-09T01:06:45;16.00;99.90
19252;DHT22;9760;50.944;5.304;2023-10-09T01:09:13;16.00;99.90
19252;DHT22;9760;50.944;5.304;2023-10-09T01:11:40;16.00;99.90
19252;DHT22;9760;50.944;5.304;2023-10-09T01:14:24;16.10;99.90
19252;DHT22;9760;50.944;5.304;2023-10-09T01:16:50;16.10;99.90
19252;DHT22;9760;50.944;5.304;2023-10-09T01:19:19;16.10;99.90
19252;DHT22;9760;50.944;5.304;2023-10-09T01:21:56;16.20;99.90
19252;DHT22;9760;50.944;5.304;2023-10-09T01:24:30;16.20;99.90
19252;DHT22;9760;50.944;5.304;2023-10-09T01:26:57;16.20;99.90
19252;DHT22;9760;50.944;5.304;2023-10-09T01:29:25;16.30;99.90
19252;DHT22;9760;50.944;5.304;2023-10-09T01:31:55;16.30;99.90
19252;DHT22;9760;50.944;5.304;2023-10-09T01:34:26;16.30;99.90
19252;DHT22;9760;50.944;5.304;2023-10-09T01:37:12;16.30;99.90
19252;DHT22;9760;50.944;5.304;2023-10-09T01:39:51;16.20;99.90
19252;DHT22;9760;50.944;5.304;2023-10-09T01:42:20;16.20;99.90
19252;DHT22;9760;50.944;5.304;2023-10-09T01:45:10;16.20;99.90
19252;DHT22;9760;50.944;5.304;2023-10-09T01:47:56;16.10;99.90
19252;DHT22;9760;50.944;5.304;2023-10-09T01:50:22;16.10;99.90
19252;DHT22;9760;50.944;5.304;2023-10-09T01:52:50;16.10;99.90
19252;DHT22;9760;50.944;5.304;2023-10-09T01:55:19;16.10;99.90
19252;DHT22;9760;50.944;5.304;2023-10-09T01:58:04;16.10;99.90
19252;DHT22;9760;50.944;5.304;2023-10-09T02:00:48;16.10;99.90
19252;DHT22;9760;50.944;5.304;2023-10-09T02:03:19;16.20;99.90
19252;DHT22;9760;50.944;5.304;2023-10-09T02:05:49;16.10;99.90
19252;DHT22;9760;50.944;5.304;2023-10-09T02:08:15;16.10;99.90
19252;DHT22;9760;50.944;5.304;2023-10-09T02:10:47;16.20;99.90
19252;DHT22;9760;50.944;5.304;2023-10-09T02:13:13;16.20;99.90
19252;DHT22;9760;50.944;5.304;2023-10-09T02:15:56;16.20;99.90
19252;DHT22;9760;50.944;5.304;2023-10-09T02:18:31;16.20;99.90
19252;DHT22;9760;50.944;5.304;2023-10-09T02:23:29;16.20;99.90
19252;DHT22;9760;50.944;5.304;2023-10-09T02:26:17;16.20;99.90
19252;DHT22;9760;50.944;5.304;2023-10-09T02:28:54;16.20;99.90
19252;DHT22;9760;50.944;5.304;2023-10-09T02:31:30;16.10;99.90
19252;DHT22;9760;50.944;5.304;2023-10-09T02:34:01;16.10;99.90
19252;DHT22;9760;50.944;5.304;2023-10-09T02:36:30;16.10;99.90
19252;DHT22;9760;50.944;5.304;2023-10-09T02:38:56;16.10;99.90
19252;DHT22;9760;50.944;5.304;2023-10-09T02:41:22;16.10;99.90
19252;DHT22;9760;50.944;5.304;2023-10-09T02:43:53;16.10;99.90
19252;DHT22;9760;50.944;5.304;2023-10-09T02:46:21;16.00;99.90
19252;DHT22;9760;50.944;5.304;2023-10-09T02:48:55;16.00;99.90
19252;DHT22;9760;50.944;5.304;2023-10-09T02:51:23;16.00;99.90
19252;DHT22;9760;50.944;5.304;2023-10-09T02:53:56;16.00;99.90
19252;DHT22;9760;50.944;5.304;2023-10-09T02:56:26;16.10;99.90
19252;DHT22;9760;50.944;5.304;2023-10-09T02:59:13;16.10;99.90
19252;DHT22;9760;50.944;5.304;2023-10-09T03:01:40;16.00;99.90
19252;DHT22;9760;50.944;5.304;2023-10-09T03:04:07;16.00;99.90
19252;DHT22;9760;50.944;5.304;2023-10-09T03:06:36;16.00;99.90
19252;DHT22;9760;50.944;5.304;2023-10-09T03:09:05;16.00;99.90
19252;DHT22;9760;50.944;5.304;2023-10-09T03:11:50;16.00;99.90
19252;DHT22;9760;50.944;5.304;2023-10-09T03:14:22;16.00;99.90
19252;DHT22;9760;50.944;5.304;2023-10-09T03:16:52;16.00;99.90
19252;DHT22;9760;50.944;5.304;2023-10-09T03:19:18;16.00;99.90
19252;DHT22;9760;50.944;5.304;2023-10-09T03:21:43;16.00;99.90
19252;DHT22;9760;50.944;5.304;2023-10-09T03:24:09;16.10;99.90
19252;DHT22;9760;50.944;5.304;2023-10-09T03:26:37;16.10;99.90
19252;DHT22;9760;50.944;5.304;2023-10-09T03:29:03;16.10;99.90
19252;DHT22;9760;50.944;5.304;2023-10-09T03:31:38;16.10;99.90
19252;DHT22;9760;50.944;5.304;2023-10-09T03:34:07;16.10;99.90
19252;DHT22;9760;50.944;5.304;2023-10-09T03:36:36;16.20;99.90
19252;DHT22;9760;50.944;5.304;2023-10-09T03:39:07;16.10;99.90
19252;DHT22;9760;50.944;5.304;2023-10-09T03:41:56;16.10;99.90
19252;DHT22;9760;50.944;5.304;2023-10-09T03:44:24;16.00;99.90
19252;DHT22;9760;50.944;5.304;2023-10-09T03:46:53;16.00;99.90
19252;DHT22;9760;50.944;5.304;2023-10-09T03:49:19;16.00;99.90
19252;DHT22;9760;50.944;5.304;2023-10-09T03:51:49;16.00;99.90
19252;DHT22;9760;50.944;5.304;2023-10-09T03:54:15;16.00;99.90
19252;DHT22;9760;50.944;5.304;2023-10-09T03:56:43;16.00;99.90
19252;DHT22;9760;50.944;5.304;2023-10-09T03:59:08;16.00;99.90
19252;DHT22;9760;50.944;5.304;2023-10-09T04:01:36;16.00;99.90
19252;DHT22;9760;50.944;5.304;2023-10-09T04:04:05;16.00;99.90
19252;DHT22;9760;50.944;5.304;2023-10-09T04:06:33;16.00;99.90
19252;DHT22;9760;50.944;5.304;2023-10-09T04:11:46;16.00;99.90
19252;DHT22;9760;50.944;5.304;2023-10-09T04:14:15;16.00;99.90
19252;DHT22;9760;50.944;5.304;2023-10-09T04:16:51;16.00;99.90
19252;DHT22;9760;50.944;5.304;2023-10-09T04:19:18;16.00;99.90
19252;DHT22;9760;50.944;5.304;2023-10-09T04:21:48;16.00;99.90
19252;DHT22;9760;50.944;5.304;2023-10-09T04:24:14;16.00;99.90
19252;DHT22;9760;50.944;5.304;2023-10-09T04:26:41;15.90;99.90
19252;DHT22;9760;50.944;5.304;2023-10-09T04:29:16;15.90;99.90
19252;DHT22;9760;50.944;5.304;2023-10-09T04:31:55;15.90;99.90
19252;DHT22;9760;50.944;5.304;2023-10-09T04:34:25;15.90;99.90
19252;DHT22;9760;50.944;5.304;2023-10-09T04:36:57;15.80;99.90
19252;DHT22;9760;50.944;5.304;2023-10-09T04:39:43;15.80;99.90
19252;DHT22;9760;50.944;5.304;2023-10-09T04:42:11;15.90;99.90
19252;DHT22;9760;50.944;5.304;2023-10-09T04:44:45;15.90;99.90
19252;DHT22;9760;50.944;5.304;2023-10-09T04:47:33;15.90;99.90
19252;DHT22;9760;50.944;5.304;2023-10-09T04:50:09;15.90;99.90
19252;DHT22;9760;50.944;5.304;2023-10-09T04:53:04;15.80;99.90
19252;DHT22;9760;50.944;5.304;2023-10-09T04:55:41;15.90;99.90
19252;DHT22;9760;50.944;5.304;2023-10-09T04:58:22;15.80;99.90
19252;DHT22;9760;50.944;5.304;2023-10-09T05:00:54;15.90;99.90
19252;DHT22;9760;50.944;5.304;2023-10-09T05:03:23;15.90;99.90
19252;DHT22;9760;50.944;5.304;2023-10-09T05:06:09;15.90;99.90
19252;DHT22;9760;50.944;5.304;2023-10-09T05:08:58;15.90;99.90
19252;DHT22;9760;50.944;5.304;2023-10-09T05:11:34;15.90;99.90
19252;DHT22;9760;50.944;5.304;2023-10-09T05:14:19;15.90;99.90
19252;DHT22;9760;50.944;5.304;2023-10-09T05:16:55;15.90;99.90
19252;DHT22;9760;50.944;5.304;2023-10-09T05:19:23;15.90;99.90
19252;DHT22;9760;50.944;5.304;2023-10-09T05:22:10;15.90;99.90
19252;DHT22;9760;50.944;5.304;2023-10-09T05:24:54;15.90;99.90
19252;DHT22;9760;50.944;5.304;2023-10-09T05:27:20;15.90;99.90
19252;DHT22;9760;50.944;5.304;2023-10-09T05:30:06;15.90;99.90
19252;DHT22;9760;50.944;5.304;2023-10-09T05:32:51;16.00;99.90
19252;DHT22;9760;50.944;5.304;2023-10-09T05:35:21;16.00;99.90
19252;DHT22;9760;50.944;5.304;2023-10-09T05:38:06;15.90;99.90
19252;DHT22;9760;50.944;5.304;2023-10-09T05:40:41;16.00;99.90
19252;DHT22;9760;50.944;5.304;2023-10-09T05:43:09;16.00;99.90
19252;DHT22;9760;50.944;5.304;2023-10-09T05:45:55;16.00;99.90
19252;DHT22;9760;50.944;5.304;2023-10-09T05:48:34;16.00;99.90
19252;DHT22;9760;50.944;5.304;2023-10-09T05:51:05;16.00;99.90
19252;DHT22;9760;50.944;5.304;2023-10-09T05:53:49;15.90;99.90
19252;DHT22;9760;50.944;5.304;2023-10-09T05:56:37;15.90;99.90
19252;DHT22;9760;50.944;5.304;2023-10-09T05:59:21;15.90;99.90
19252;DHT22;9760;50.944;5.304;2023-10-09T06:02:05;15.90;99.90
19252;DHT22;9760;50.944;5.304;2023-10-09T06:04:54;16.00;99.90
19252;DHT22;9760;50.944;5.304;2023-10-09T06:07:21;15.90;99.90
19252;DHT22;9760;50.944;5.304;2023-10-09T06:10:06;15.90;99.90
19252;DHT22;9760;50.944;5.304;2023-10-09T06:12:43;15.90;99.90
19252;DHT22;9760;50.944;5.304;2023-10-09T06:15:08;15.90;99.90
19252;DHT22;9760;50.944;5.304;2023-10-09T06:17:54;16.00;99.90
19252;DHT22;9760;50.944;5.304;2023-10-09T06:20:25;16.00;99.90
19252;DHT22;9760;50.944;5.304;2023-10-09T06:23:26;16.00;99.90
19252;DHT22;9760;50.944;5.304;2023-10-09T06:26:12;16.10;99.90
19252;DHT22;9760;50.944;5.304;2023-10-09T06:28:49;16.10;99.90
19252;DHT22;9760;50.944;5.304;2023-10-09T06:31:35;16.10;99.90
19252;DHT22;9760;50.944;5.304;2023-10-09T06:34:20;16.10;99.90
19252;DHT22;9760;50.944;5.304;2023-10-09T06:36:50;16.00;99.90
19252;DHT22;9760;50.944;5.304;2023-10-09T06:39:19;16.10;99.90
19252;DHT22;9760;50.944;5.304;2023-10-09T06:42:03;16.10;99.90
19252;DHT22;9760;50.944;5.304;2023-10-09T06:44:54;16.10;99.90
19252;DHT22;9760;50.944;5.304;2023-10-09T06:47:20;16.10;99.90
19252;DHT22;9760;50.944;5.304;2023-10-09T06:49:49;16.10;99.90
19252;DHT22;9760;50.944;5.304;2023-10-09T06:52:35;16.20;99.90
19252;DHT22;9760;50.944;5.304;2023-10-09T06:55:19;16.10;99.90
19252;DHT22;9760;50.944;5.304;2023-10-09T06:57:45;16.10;99.90
19252;DHT22;9760;50.944;5.304;2023-10-09T07:00:15;16.20;99.90
19252;DHT22;9760;50.944;5.304;2023-10-09T07:03:01;16.10;99.90
19252;DHT22;9760;50.944;5.304;2023-10-09T07:05:37;16.20;99.90
19252;DHT22;9760;50.944;5.304;2023-10-09T07:08:23;16.20;99.90
19252;DHT22;9760;50.944;5.304;2023-10-09T07:11:00;16.10;99.90
19252;DHT22;9760;50.944;5.304;2023-10-09T07:13:44;16.20;99.90
19252;DHT22;9760;50.944;5.304;2023-10-09T07:16:20;16.20;99.90
19252;DHT22;9760;50.944;5.304;2023-10-09T07:18:49;16.20;99.90
19252;DHT22;9760;50.944;5.304;2023-10-09T07:21:15;16.20;99.90
19252;DHT22;9760;50.944;5.304;2023-10-09T07:23:43;16.20;99.90
19252;DHT22;9760;50.944;5.304;2023-10-09T07:26:15;16.20;99.90
19252;DHT22;9760;50.944;5.304;2023-10-09T07:28:44;16.20;99.90
19252;DHT22;9760;50.944;5.304;2023-10-09T07:31:17;16.20;99.90
19252;DHT22;9760;50.944;5.304;2023-10-09T07:33:50;16.30;99.90
19252;DHT22;9760;50.944;5.304;2023-10-09T07:36:22;16.30;99.90
19252;DHT22;9760;50.944;5.304;2023-10-09T07:39:02;16.20;99.90
19252;DHT22;9760;50.944;5.304;2023-10-09T07:41:31;16.30;99.90
19252;DHT22;9760;50.944;5.304;2023-10-09T07:43:57;16.40;99.90
19252;DHT22;9760;50.944;5.304;2023-10-09T07:46:23;16.40;99.90
19252;DHT22;9760;50.944;5.304;2023-10-09T07:48:59;16.40;99.90
19252;DHT22;9760;50.944;5.304;2023-10-09T07:51:28;16.40;99.90
19252;DHT22;9760;50.944;5.304;2023-10-09T07:53:57;16.50;99.90
19252;DHT22;9760;50.944;5.304;2023-10-09T07:56:32;16.60;99.90
19252;DHT22;9760;50.944;5.304;2023-10-09T07:59:05;16.60;99.90
19252;DHT22;9760;50.944;5.304;2023-10-09T08:01:45;16.80;99.90
19252;DHT22;9760;50.944;5.304;2023-10-09T08:04:40;16.80;99.90
19252;DHT22;9760;50.944;5.304;2023-10-09T08:07:15;16.90;99.90
19252;DHT22;9760;50.944;5.304;2023-10-09T08:10:08;17.00;99.90
19252;DHT22;9760;50.944;5.304;2023-10-09T08:12:43;17.00;99.90
19252;DHT22;9760;50.944;5.304;2023-10-09T08:15:16;17.10;99.90
19252;DHT22;9760;50.944;5.304;2023-10-09T08:17:51;17.10;99.90
19252;DHT22;9760;50.944;5.304;2023-10-09T08:20:26;17.20;99.90
19252;DHT22;9760;50.944;5.304;2023-10-09T08:22:52;17.20;99.90
19252;DHT22;9760;50.944;5.304;2023-10-09T08:25:21;17.30;99.90
19252;DHT22;9760;50.944;5.304;2023-10-09T08:27:58;17.40;99.90
19252;DHT22;9760;50.944;5.304;2023-10-09T08:30:44;17.40;99.90
19252;DHT22;9760;50.944;5.304;2023-10-09T08:33:16;17.40;99.90
19252;DHT22;9760;50.944;5.304;2023-10-09T08:35:52;17.60;99.90
19252;DHT22;9760;50.944;5.304;2023-10-09T08:38:21;17.70;99.90
19252;DHT22;9760;50.944;5.304;2023-10-09T08:40:51;17.80;99.90
19252;DHT22;9760;50.944;5.304;2023-10-09T08:43:21;17.90;99.90
19252;DHT22;9760;50.944;5.304;2023-10-09T08:45:54;17.90;99.90
19252;DHT22;9760;50.944;5.304;2023-10-09T08:48:27;17.90;99.90
19252;DHT22;9760;50.944;5.304;2023-10-09T08:50:53;17.80;99.90
19252;DHT22;9760;50.944;5.304;2023-10-09T08:53:21;17.80;99.90
19252;DHT22;9760;50.944;5.304;2023-10-09T08:55:47;17.90;99.90
19252;DHT22;9760;50.944;5.304;2023-10-09T08:58:16;17.90;99.90
19252;DHT22;9760;50.944;5.304;2023-10-09T09:01:01;17.90;99.90
19252;DHT22;9760;50.944;5.304;2023-10-09T09:03:41;18.00;99.90
19252;DHT22;9760;50.944;5.304;2023-10-09T09:06:09;18.10;99.90
19252;DHT22;9760;50.944;5.304;2023-10-09T09:08:36;18.20;99.90
19252;DHT22;9760;50.944;5.304;2023-10-09T09:14:07;18.40;99.90
19252;DHT22;9760;50.944;5.304;2023-10-09T09:16:44;18.40;99.90
19252;DHT22;9760;50.944;5.304;2023-10-09T09:19:14;18.50;99.90
19252;DHT22;9760;50.944;5.304;2023-10-09T09:21:57;18.60;99.90
19252;DHT22;9760;50.944;5.304;2023-10-09T09:24:37;18.60;99.90
19252;DHT22;9760;50.944;5.304;2023-10-09T09:27:04;18.70;99.90
19252;DHT22;9760;50.944;5.304;2023-10-09T09:32:04;18.90;99.90
19252;DHT22;9760;50.944;5.304;2023-10-09T09:34:48;19.10;99.90
19252;DHT22;9760;50.944;5.304;2023-10-09T09:37:21;19.40;99.90
19252;DHT22;9760;50.944;5.304;2023-10-09T09:39:51;19.70;99.90
19252;DHT22;9760;50.944;5.304;2023-10-09T09:42:18;19.60;99.90
19252;DHT22;9760;50.944;5.304;2023-10-09T09:44:51;19.60;99.90
19252;DHT22;9760;50.944;5.304;2023-10-09T09:47:17;19.50;99.90
19252;DHT22;9760;50.944;5.304;2023-10-09T09:49:51;19.50;99.90
19252;DHT22;9760;50.944;5.304;2023-10-09T09:52:28;19.60;99.90
19252;DHT22;9760;50.944;5.304;2023-10-09T09:54:54;19.80;99.90
19252;DHT22;9760;50.944;5.304;2023-10-09T09:57:23;20.10;99.90
19252;DHT22;9760;50.944;5.304;2023-10-09T09:59:52;20.20;99.90
19252;DHT22;9760;50.944;5.304;2023-10-09T10:02:35;20.20;99.90
19252;DHT22;9760;50.944;5.304;2023-10-09T10:05:05;20.40;99.90
19252;DHT22;9760;50.944;5.304;2023-10-09T10:07:33;20.50;99.90
19252;DHT22;9760;50.944;5.304;2023-10-09T10:10:40;20.30;99.90
19252;DHT22;9760;50.944;5.304;2023-10-09T10:16:16;20.50;99.90
19252;DHT22;9760;50.944;5.304;2023-10-09T10:18:59;20.70;99.90
19252;DHT22;9760;50.944;5.304;2023-10-09T10:21:37;20.80;99.90
19252;DHT22;9760;50.944;5.304;2023-10-09T10:32:59;20.60;99.90
19252;DHT22;9760;50.944;5.304;2023-10-09T10:35:36;20.50;99.90
19252;DHT22;9760;50.944;5.304;2023-10-09T10:43:37;21.00;99.90
19252;DHT22;9760;50.944;5.304;2023-10-09T10:46:17;21.00;99.90
19252;DHT22;9760;50.944;5.304;2023-10-09T10:48:52;21.00;99.90
19252;DHT22;9760;50.944;5.304;2023-10-09T10:51:38;21.00;99.90
19252;DHT22;9760;50.944;5.304;2023-10-09T10:54:08;20.80;99.90
19252;DHT22;9760;50.944;5.304;2023-10-09T10:57:03;20.80;99.90
19252;DHT22;9760;50.944;5.304;2023-10-09T10:59:45;20.80;99.90
19252;DHT22;9760;50.944;5.304;2023-10-09T11:02:11;20.90;99.90
19252;DHT22;9760;50.944;5.304;2023-10-09T11:04:38;20.90;99.90
19252;DHT22;9760;50.944;5.304;2023-10-09T11:07:10;20.90;99.90
19252;DHT22;9760;50.944;5.304;2023-10-09T11:09:46;20.90;99.90
19252;DHT22;9760;50.944;5.304;2023-10-09T11:12:50;20.90;99.90
19252;DHT22;9760;50.944;5.304;2023-10-09T11:15:39;21.10;99.90
19252;DHT22;9760;50.944;5.304;2023-10-09T11:18:12;21.10;99.90
19252;DHT22;9760;50.944;5.304;2023-10-09T11:20:58;21.20;99.90
19252;DHT22;9760;50.944;5.304;2023-10-09T11:23:24;21.10;99.90
19252;DHT22;9760;50.944;5.304;2023-10-09T11:26:03;21.10;99.90
19252;DHT22;9760;50.944;5.304;2023-10-09T11:29:10;21.10;99.90
19252;DHT22;9760;50.944;5.304;2023-10-09T11:32:05;21.10;99.90
19252;DHT22;9760;50.944;5.304;2023-10-09T11:34:32;21.10;99.90
19252;DHT22;9760;50.944;5.304;2023-10-09T11:37:13;21.10;99.90
19252;DHT22;9760;50.944;5.304;2023-10-09T11:39:57;21.20;99.90
19252;DHT22;9760;50.944;5.304;2023-10-09T11:42:24;21.10;99.90
19252;DHT22;9760;50.944;5.304;2023-10-09T11:45:23;21.10;99.90
19252;DHT22;9760;50.944;5.304;2023-10-09T11:47:51;21.20;99.90
19252;DHT22;9760;50.944;5.304;2023-10-09T11:50:42;21.10;99.90
19252;DHT22;9760;50.944;5.304;2023-10-09T11:53:11;21.00;99.90
19252;DHT22;9760;50.944;5.304;2023-10-09T11:55:57;21.00;99.90
19252;DHT22;9760;50.944;5.304;2023-10-09T11:58:24;21.00;99.90
19252;DHT22;9760;50.944;5.304;2023-10-09T12:00:57;21.10;99.90
19252;DHT22;9760;50.944;5.304;2023-10-09T12:03:27;21.20;99.90
19252;DHT22;9760;50.944;5.304;2023-10-09T12:05:59;21.40;99.90
19252;DHT22;9760;50.944;5.304;2023-10-09T12:08:32;21.40;99.90
19252;DHT22;9760;50.944;5.304;2023-10-09T12:10:59;21.30;99.90
19252;DHT22;9760;50.944;5.304;2023-10-09T12:13:29;21.50;99.90
19252;DHT22;9760;50.944;5.304;2023-10-09T12:15:55;21.60;99.90
19252;DHT22;9760;50.944;5.304;2023-10-09T12:18:23;21.70;99.90
19252;DHT22;9760;50.944;5.304;2023-10-09T12:20:50;21.70;99.90
19252;DHT22;9760;50.944;5.304;2023-10-09T12:23:22;21.90;99.90
19252;DHT22;9760;50.944;5.304;2023-10-09T12:25:49;21.60;99.90
19252;DHT22;9760;50.944;5.304;2023-10-09T12:28:15;21.50;99.90
19252;DHT22;9760;50.944;5.304;2023-10-09T12:30:46;21.50;99.90
19252;DHT22;9760;50.944;5.304;2023-10-09T12:33:16;21.40;99.90
19252;DHT22;9760;50.944;5.304;2023-10-09T12:35:42;21.20;99.90
19252;DHT22;9760;50.944;5.304;2023-10-09T12:38:11;21.30;99.90
19252;DHT22;9760;50.944;5.304;2023-10-09T12:40:39;21.20;99.90
19252;DHT22;9760;50.944;5.304;2023-10-09T12:43:18;21.20;99.90
19252;DHT22;9760;50.944;5.304;2023-10-09T12:45:45;21.20;99.90
19252;DHT22;9760;50.944;5.304;2023-10-09T12:48:12;21.20;99.90
19252;DHT22;9760;50.944;5.304;2023-10-09T12:50:40;21.20;99.90
19252;DHT22;9760;50.944;5.304;2023-10-09T12:53:10;21.20;99.90
19252;DHT22;9760;50.944;5.304;2023-10-09T12:55:40;21.30;99.90
19252;DHT22;9760;50.944;5.304;2023-10-09T12:58:08;21.40;99.90
19252;DHT22;9760;50.944;5.304;2023-10-09T13:00:37;21.40;99.90
19252;DHT22;9760;50.944;5.304;2023-10-09T13:03:09;21.30;99.90
19252;DHT22;9760;50.944;5.304;2023-10-09T13:05:53;21.20;99.90
19252;DHT22;9760;50.944;5.304;2023-10-09T13:08:27;21.20;99.90
19252;DHT22;9760;50.944;5.304;2023-10-09T13:11:09;21.20;99.90
19252;DHT22;9760;50.944;5.304;2023-10-09T13:13:38;21.20;99.90
19252;DHT22;9760;50.944;5.304;2023-10-09T13:16:20;21.10;99.90
19252;DHT22;9760;50.944;5.304;2023-10-09T13:18:56;21.20;99.90
19252;DHT22;9760;50.944;5.304;2023-10-09T13:21:23;21.20;99.90
19252;DHT22;9760;50.944;5.304;2023-10-09T13:23:50;21.40;99.90
19252;DHT22;9760;50.944;5.304;2023-10-09T13:26:17;21.30;99.90
19252;DHT22;9760;50.944;5.304;2023-10-09T13:28:45;21.30;99.90
19252;DHT22;9760;50.944;5.304;2023-10-09T13:31:12;21.30;99.90
19252;DHT22;9760;50.944;5.304;2023-10-09T13:33:42;21.40;99.90
19252;DHT22;9760;50.944;5.304;2023-10-09T13:36:12;21.40;99.90
19252;DHT22;9760;50.944;5.304;2023-10-09T13:38:43;21.40;99.90
19252;DHT22;9760;50.944;5.304;2023-10-09T13:41:10;21.40;99.90
19252;DHT22;9760;50.944;5.304;2023-10-09T13:43:41;21.40;99.90
19252;DHT22;9760;50.944;5.304;2023-10-09T13:46:11;21.40;99.90
19252;DHT22;9760;50.944;5.304;2023-10-09T13:48:40;21.50;99.90
19252;DHT22;9760;50.944;5.304;2023-10-09T13:51:11;21.60;99.90
19252;DHT22;9760;50.944;5.304;2023-10-09T13:53:43;21.70;99.90
19252;DHT22;9760;50.944;5.304;2023-10-09T13:56:16;21.60;99.90
19252;DHT22;9760;50.944;5.304;2023-10-09T13:58:49;21.60;99.90
19252;DHT22;9760;50.944;5.304;2023-10-09T14:01:19;21.60;99.90
19252;DHT22;9760;50.944;5.304;2023-10-09T14:03:55;21.50;99.90
19252;DHT22;9760;50.944;5.304;2023-10-09T14:06:21;21.50;99.90
19252;DHT22;9760;50.944;5.304;2023-10-09T14:08:57;21.50;99.90
19252;DHT22;9760;50.944;5.304;2023-10-09T14:11:22;21.50;99.90
19252;DHT22;9760;50.944;5.304;2023-10-09T14:13:50;21.40;99.90
19252;DHT22;9760;50.944;5.304;2023-10-09T14:16:16;21.20;99.90
19252;DHT22;9760;50.944;5.304;2023-10-09T14:18:56;21.20;99.90
19252;DHT22;9760;50.944;5.304;2023-10-09T14:21:28;21.30;99.90
19252;DHT22;9760;50.944;5.304;2023-10-09T14:23:56;21.30;99.90
19252;DHT22;9760;50.944;5.304;2023-10-09T14:26:26;21.40;99.90
19252;DHT22;9760;50.944;5.304;2023-10-09T14:28:53;21.30;99.90
19252;DHT22;9760;50.944;5.304;2023-10-09T14:31:19;21.20;99.90
19252;DHT22;9760;50.944;5.304;2023-10-09T14:33:56;21.20;99.90
19252;DHT22;9760;50.944;5.304;2023-10-09T14:36:23;21.20;99.90
19252;DHT22;9760;50.944;5.304;2023-10-09T14:38:50;21.10;99.90
19252;DHT22;9760;50.944;5.304;2023-10-09T14:41:21;21.10;99.90
19252;DHT22;9760;50.944;5.304;2023-10-09T14:43:51;21.10;99.90
19252;DHT22;9760;50.944;5.304;2023-10-09T14:46:18;21.10;99.90
19252;DHT22;9760;50.944;5.304;2023-10-09T14:48:49;21.10;99.90
19252;DHT22;9760;50.944;5.304;2023-10-09T14:51:14;21.10;99.90
19252;DHT22;9760;50.944;5.304;2023-10-09T14:53:40;21.10;99.90
19252;DHT22;9760;50.944;5.304;2023-10-09T14:56:06;21.20;99.90
19252;DHT22;9760;50.944;5.304;2023-10-09T14:58:35;21.10;99.90
19252;DHT22;9760;50.944;5.304;2023-10-09T15:01:10;21.00;99.90
19252;DHT22;9760;50.944;5.304;2023-10-09T15:03:38;21.10;99.90
19252;DHT22;9760;50.944;5.304;2023-10-09T15:06:04;21.10;99.90
19252;DHT22;9760;50.944;5.304;2023-10-09T15:08:34;21.10;99.90
19252;DHT22;9760;50.944;5.304;2023-10-09T15:11:00;21.10;99.90
19252;DHT22;9760;50.944;5.304;2023-10-09T15:13:26;21.20;99.90
19252;DHT22;9760;50.944;5.304;2023-10-09T15:15:54;21.10;99.90
19252;DHT22;9760;50.944;5.304;2023-10-09T15:18:21;21.20;99.90
19252;DHT22;9760;50.944;5.304;2023-10-09T15:20:48;21.20;99.90
19252;DHT22;9760;50.944;5.304;2023-10-09T15:23:14;21.10;99.90
19252;DHT22;9760;50.944;5.304;2023-10-09T15:25:40;21.00;99.90
19252;DHT22;9760;50.944;5.304;2023-10-09T15:28:10;21.00;99.90
19252;DHT22;9760;50.944;5.304;2023-10-09T15:30:36;21.00;99.90
19252;DHT22;9760;50.944;5.304;2023-10-09T15:33:06;21.00;99.90
19252;DHT22;9760;50.944;5.304;2023-10-09T15:35:33;20.90;99.90
19252;DHT22;9760;50.944;5.304;2023-10-09T15:38:03;20.90;99.90
19252;DHT22;9760;50.944;5.304;2023-10-09T15:40:32;20.90;99.90
19252;DHT22;9760;50.944;5.304;2023-10-09T15:43:03;20.80;99.90
19252;DHT22;9760;50.944;5.304;2023-10-09T15:45:30;20.90;99.90
19252;DHT22;9760;50.944;5.304;2023-10-09T15:47:57;21.00;99.90
19252;DHT22;9760;50.944;5.304;2023-10-09T15:50:25;21.20;99.90
19252;DHT22;9760;50.944;5.304;2023-10-09T15:52:55;21.20;99.90
19252;DHT22;9760;50.944;5.304;2023-10-09T15:55:22;21.00;99.90
19252;DHT22;9760;50.944;5.304;2023-10-09T15:57:51;20.90;99.90
19252;DHT22;9760;50.944;5.304;2023-10-09T16:00:21;20.80;99.90
19252;DHT22;9760;50.944;5.304;2023-10-09T16:02:48;20.80;99.90
19252;DHT22;9760;50.944;5.304;2023-10-09T16:05:14;20.70;99.90
19252;DHT22;9760;50.944;5.304;2023-10-09T16:07:43;20.60;99.90
19252;DHT22;9760;50.944;5.304;2023-10-09T16:10:09;20.60;99.90
19252;DHT22;9760;50.944;5.304;2023-10-09T16:12:39;20.60;99.90
19252;DHT22;9760;50.944;5.304;2023-10-09T16:15:06;20.50;99.90
19252;DHT22;9760;50.944;5.304;2023-10-09T16:17:33;20.50;99.90
19252;DHT22;9760;50.944;5.304;2023-10-09T16:20:00;20.50;99.90
19252;DHT22;9760;50.944;5.304;2023-10-09T16:22:29;20.40;99.90
19252;DHT22;9760;50.944;5.304;2023-10-09T16:24:58;20.50;99.90
19252;DHT22;9760;50.944;5.304;2023-10-09T16:27:25;20.50;99.90
19252;DHT22;9760;50.944;5.304;2023-10-09T16:29:51;20.70;99.90
19252;DHT22;9760;50.944;5.304;2023-10-09T16:32:20;20.60;99.90
19252;DHT22;9760;50.944;5.304;2023-10-09T16:34:52;20.40;99.90
19252;DHT22;9760;50.944;5.304;2023-10-09T16:37:18;20.30;99.90
19252;DHT22;9760;50.944;5.304;2023-10-09T16:39:48;20.00;99.90
19252;DHT22;9760;50.944;5.304;2023-10-09T16:42:14;19.80;99.90
19252;DHT22;9760;50.944;5.304;2023-10-09T16:44:39;19.70;99.90
19252;DHT22;9760;50.944;5.304;2023-10-09T16:47:05;19.60;99.90
19252;DHT22;9760;50.944;5.304;2023-10-09T16:49:34;19.50;99.90